createdAt,value
2017-09-03T00:00:59.474Z,8.03
2017-09-03T00:03:26.933Z,8.60
2017-09-03T00:05:54.516Z,15.60
2017-09-03T00:08:22.006Z,7.10
2017-09-03T00:10:49.476Z,7.70
2017-09-03T00:13:16.942Z,6.77
2017-09-03T00:15:44.420Z,7.27
2017-09-03T00:18:11.901Z,7.57
2017-09-03T00:20:39.380Z,7.40
2017-09-03T00:23:06.848Z,8.60
2017-09-03T00:25:34.324Z,8.90
2017-09-03T00:28:01.819Z,11.10
2017-09-03T00:30:29.279Z,8.10
2017-09-03T00:32:56.742Z,7.87
2017-09-03T00:35:24.291Z,8.13
2017-09-03T00:37:51.810Z,8.97
2017-09-03T00:40:19.286Z,10.13
2017-09-03T00:42:46.777Z,8.90
2017-09-03T00:45:14.332Z,8.40
2017-09-03T00:47:41.895Z,9.10
2017-09-03T00:50:09.445Z,10.37
2017-09-03T00:52:36.919Z,9.70
2017-09-03T00:55:04.481Z,9.40
2017-09-03T00:57:32.029Z,8.53
2017-09-03T00:59:59.489Z,10.47
2017-09-03T01:02:27.033Z,9.10
2017-09-03T01:04:54.475Z,9.77
2017-09-03T01:07:21.945Z,10.07
2017-09-03T01:09:49.464Z,9.67
2017-09-03T01:12:16.935Z,11.00
2017-09-03T01:14:44.387Z,10.47
2017-09-03T01:17:11.885Z,8.90
2017-09-03T01:19:39.345Z,8.50
2017-09-03T01:22:06.821Z,8.97
2017-09-03T01:24:34.365Z,9.10
2017-09-03T01:27:01.831Z,9.23
2017-09-03T01:29:29.317Z,11.30
2017-09-03T01:31:56.788Z,10.83
2017-09-03T01:34:24.273Z,9.63
2017-09-03T01:36:51.817Z,11.00
2017-09-03T01:39:19.275Z,12.37
2017-09-03T01:41:46.868Z,16.67
2017-09-03T01:44:14.409Z,11.20
2017-09-03T01:46:41.966Z,12.33
2017-09-03T01:49:09.687Z,12.03
2017-09-03T01:51:37.201Z,12.37
2017-09-03T01:54:04.694Z,10.50
2017-09-03T01:56:32.201Z,10.83
2017-09-03T01:58:59.760Z,9.23
2017-09-03T02:01:27.228Z,10.83
2017-09-03T02:03:54.779Z,13.20
2017-09-03T02:06:22.262Z,9.33
2017-09-03T02:08:49.766Z,9.93
2017-09-03T02:11:17.300Z,10.60
2017-09-03T02:13:44.805Z,9.97
2017-09-03T02:16:12.383Z,9.23
2017-09-03T02:18:39.865Z,9.87
2017-09-03T02:21:07.320Z,10.07
2017-09-03T02:23:34.833Z,18.07
2017-09-03T02:26:02.297Z,9.03
2017-09-03T02:28:29.866Z,10.10
2017-09-03T02:30:57.411Z,14.47
2017-09-03T02:33:24.969Z,10.50
2017-09-03T02:35:52.436Z,9.93
2017-09-03T02:38:19.913Z,10.80
2017-09-03T02:40:47.441Z,14.13
2017-09-03T02:43:14.920Z,9.30
2017-09-03T02:45:42.667Z,11.40
2017-09-03T02:48:10.153Z,10.87
2017-09-03T02:50:37.677Z,10.87
2017-09-03T02:53:05.242Z,10.73
2017-09-03T02:55:32.699Z,9.37
2017-09-03T02:58:00.336Z,9.03
2017-09-03T03:00:27.791Z,8.07
2017-09-03T03:02:55.266Z,12.17
2017-09-03T03:05:22.841Z,10.07
2017-09-03T03:07:50.360Z,9.77
2017-09-03T03:10:17.803Z,9.70
2017-09-03T03:12:45.281Z,9.60
2017-09-03T03:15:12.755Z,11.30
2017-09-03T03:17:40.313Z,21.67
2017-09-03T03:20:07.869Z,14.57
2017-09-03T03:22:35.432Z,11.67
2017-09-03T03:25:03.006Z,10.97
2017-09-03T03:27:30.484Z,12.37
2017-09-03T03:29:58.017Z,9.97
2017-09-03T03:32:25.540Z,12.10
2017-09-03T03:34:53.015Z,9.80
2017-09-03T03:37:20.476Z,10.23
2017-09-03T03:39:48.069Z,11.60
2017-09-03T03:42:15.512Z,8.67
2017-09-03T03:44:42.989Z,9.97
2017-09-03T03:47:10.448Z,8.80
2017-09-03T03:49:37.968Z,10.33
2017-09-03T03:52:05.421Z,9.73
2017-09-03T03:54:32.916Z,9.60
2017-09-03T03:57:00.364Z,9.57
2017-09-03T03:59:27.853Z,11.07
2017-09-03T04:01:55.401Z,11.97
2017-09-03T04:04:22.879Z,11.10
2017-09-03T04:06:50.363Z,10.77
2017-09-03T04:09:17.922Z,10.17
2017-09-03T04:11:45.480Z,11.37
2017-09-03T04:14:12.946Z,10.60
2017-09-03T04:16:40.514Z,10.03
2017-09-03T04:19:07.980Z,10.33
2017-09-03T04:21:35.431Z,11.37
2017-09-03T04:24:02.921Z,10.53
2017-09-03T04:26:30.380Z,16.43
2017-09-03T04:28:57.891Z,10.13
2017-09-03T04:31:25.464Z,14.23
2017-09-03T04:33:53.005Z,11.63
2017-09-03T04:36:20.569Z,14.07
2017-09-03T04:38:48.134Z,10.60
2017-09-03T04:41:15.624Z,11.03
2017-09-03T04:43:43.089Z,12.10
2017-09-03T04:46:10.572Z,10.80
2017-09-03T04:48:38.061Z,12.27
2017-09-03T04:51:05.549Z,12.27
2017-09-03T04:53:33.070Z,10.80
2017-09-03T04:56:00.563Z,9.83
2017-09-03T04:58:28.004Z,9.70
2017-09-03T05:00:55.472Z,9.90
2017-09-03T05:03:23.032Z,12.03
2017-09-03T05:05:50.547Z,10.93
2017-09-03T05:08:18.004Z,12.13
2017-09-03T05:10:45.563Z,12.13
2017-09-03T05:13:13.521Z,13.07
2017-09-03T05:15:41.092Z,11.43
2017-09-03T05:18:08.573Z,11.13
2017-09-03T05:20:36.113Z,11.43
2017-09-03T05:23:03.571Z,16.50
2017-09-03T05:25:31.047Z,10.10
2017-09-03T05:27:58.630Z,10.07
2017-09-03T05:30:26.109Z,7.73
2017-09-03T05:32:53.551Z,9.03
2017-09-03T05:35:21.028Z,19.93
2017-09-03T05:37:48.487Z,10.17
2017-09-03T05:40:15.979Z,9.70
2017-09-03T05:42:43.521Z,10.10
2017-09-03T05:45:11.025Z,12.53
2017-09-03T05:47:38.487Z,16.03
2017-09-03T05:50:05.995Z,12.47
2017-09-03T05:52:33.551Z,12.10
2017-09-03T05:55:01.208Z,14.67
2017-09-03T05:57:28.700Z,9.67
2017-09-03T05:59:56.231Z,12.20
2017-09-03T06:02:23.805Z,11.47
2017-09-03T06:04:51.346Z,10.50
2017-09-03T06:07:18.807Z,9.90
2017-09-03T06:09:46.259Z,12.97
2017-09-03T06:12:13.736Z,12.00
2017-09-03T06:14:41.222Z,12.77
2017-09-03T06:17:08.726Z,12.10
2017-09-03T06:19:36.293Z,12.77
2017-09-03T06:22:03.801Z,11.73
2017-09-03T06:24:31.289Z,11.73
2017-09-03T06:26:58.760Z,13.53
2017-09-03T06:29:26.270Z,11.77
2017-09-03T06:31:53.756Z,13.87
2017-09-03T06:34:21.257Z,13.20
2017-09-03T06:36:48.756Z,12.77
2017-09-03T06:39:16.238Z,16.10
2017-09-03T06:41:43.728Z,12.53
2017-09-03T06:44:11.202Z,12.73
2017-09-03T06:46:38.846Z,12.30
2017-09-03T06:49:06.360Z,11.90
2017-09-03T06:51:33.840Z,27.70
2017-09-03T06:54:01.399Z,15.33
2017-09-03T06:56:28.918Z,14.30
2017-09-03T06:58:56.412Z,14.50
2017-09-03T07:01:23.894Z,13.40
2017-09-03T07:03:51.358Z,13.53
2017-09-03T07:06:18.825Z,14.17
2017-09-03T07:08:46.343Z,14.70
2017-09-03T07:11:13.895Z,11.87
2017-09-03T07:13:41.457Z,13.07
2017-09-03T07:16:08.921Z,14.70
2017-09-03T07:18:36.403Z,13.93
2017-09-03T07:21:03.931Z,14.00
2017-09-03T07:23:31.802Z,14.13
2017-09-03T07:25:59.283Z,14.87
2017-09-03T07:28:26.813Z,13.50
2017-09-03T07:30:54.302Z,20.23
2017-09-03T07:33:21.837Z,12.03
2017-09-03T07:35:49.397Z,14.10
2017-09-03T07:38:16.909Z,13.20
2017-09-03T07:40:44.386Z,15.27
2017-09-03T07:43:11.864Z,13.63
2017-09-03T07:45:39.345Z,14.83
2017-09-03T07:48:06.823Z,13.97
2017-09-03T07:50:34.633Z,15.07
2017-09-03T07:53:02.165Z,12.47
2017-09-03T07:55:29.653Z,14.47
2017-09-03T07:57:57.144Z,14.97
2017-09-03T08:00:24.675Z,12.60
2017-09-03T08:02:52.226Z,14.13
2017-09-03T08:05:19.695Z,18.50
2017-09-03T08:07:47.171Z,13.50
2017-09-03T08:10:14.628Z,22.60
2017-09-03T08:12:42.107Z,15.00
2017-09-03T08:15:09.573Z,15.60
2017-09-03T08:17:37.063Z,17.37
2017-09-03T08:20:04.643Z,19.63
2017-09-03T08:22:32.134Z,15.97
2017-09-03T08:24:59.644Z,14.77
2017-09-03T08:27:27.165Z,15.20
2017-09-03T08:29:54.639Z,15.30
2017-09-03T08:32:22.133Z,15.80
2017-09-03T08:34:49.623Z,27.17
2017-09-03T08:37:17.137Z,17.27
2017-09-03T08:39:45.350Z,12.80
2017-09-03T08:42:12.830Z,19.00
2017-09-03T08:44:40.325Z,14.03
2017-09-03T08:47:07.779Z,13.40
2017-09-03T08:49:35.363Z,14.10
2017-09-03T08:52:02.844Z,12.80
2017-09-03T08:54:30.492Z,13.20
2017-09-03T08:56:58.012Z,14.80
2017-09-03T08:59:25.516Z,14.17
2017-09-03T09:01:52.986Z,11.53
2017-09-03T09:04:20.476Z,14.10
2017-09-03T09:06:47.936Z,12.50
2017-09-03T09:09:15.412Z,12.90
2017-09-03T09:11:42.863Z,10.03
2017-09-03T09:14:10.339Z,9.63
2017-09-03T09:16:37.877Z,10.80
2017-09-03T09:19:05.357Z,11.43
2017-09-03T09:21:32.809Z,9.90
2017-09-03T09:24:00.281Z,8.67
2017-09-03T09:26:27.731Z,8.27
2017-09-03T09:28:55.212Z,11.77
2017-09-03T09:31:22.675Z,8.20
2017-09-03T09:33:50.139Z,8.03
2017-09-03T09:36:17.603Z,6.43
2017-09-03T09:38:45.076Z,7.87
2017-09-03T09:41:12.523Z,8.90
2017-09-03T09:43:40.083Z,8.77
2017-09-03T09:46:07.992Z,8.27
2017-09-03T09:48:35.446Z,6.83
2017-09-03T09:51:02.925Z,10.30
2017-09-03T09:53:30.378Z,7.17
2017-09-03T09:55:57.865Z,9.60
2017-09-03T09:58:25.444Z,9.83
2017-09-03T10:00:53.004Z,7.27
2017-09-03T10:03:20.562Z,7.57
2017-09-03T10:05:48.026Z,9.60
2017-09-03T10:08:15.581Z,12.30
2017-09-03T10:10:43.091Z,14.10
2017-09-03T10:13:10.544Z,8.80
2017-09-03T10:15:38.251Z,8.43
2017-09-03T10:18:05.744Z,7.90
2017-09-03T10:20:33.220Z,8.87
2017-09-03T10:23:00.669Z,8.73
2017-09-03T10:25:28.181Z,9.30
2017-09-03T10:27:55.752Z,9.57
2017-09-03T10:30:23.199Z,8.63
2017-09-03T10:32:50.673Z,9.73
2017-09-03T10:35:18.149Z,10.10
2017-09-03T10:37:45.668Z,9.00
2017-09-03T10:40:13.229Z,9.37
2017-09-03T10:42:40.699Z,8.83
2017-09-03T10:45:08.166Z,7.40
2017-09-03T10:47:35.693Z,8.13
2017-09-03T10:50:03.141Z,7.63
2017-09-03T10:52:30.607Z,7.00
2017-09-03T10:54:58.305Z,7.33
2017-09-03T10:57:25.832Z,7.13
2017-09-03T10:59:54.275Z,7.50
2017-09-03T11:02:21.771Z,6.50
2017-09-03T11:04:49.254Z,6.83
2017-09-03T11:07:16.836Z,13.80
2017-09-03T11:09:44.447Z,6.57
2017-09-03T11:12:11.921Z,6.10
2017-09-03T11:14:39.391Z,6.93
2017-09-03T11:17:06.920Z,5.90
2017-09-03T11:19:34.397Z,7.73
2017-09-03T11:22:01.860Z,6.30
2017-09-03T11:24:29.323Z,6.53
2017-09-03T11:26:56.795Z,5.73
2017-09-03T11:29:24.317Z,4.53
2017-09-03T11:31:51.786Z,6.73
2017-09-03T11:34:19.353Z,4.03
2017-09-03T11:36:46.872Z,4.93
2017-09-03T11:39:14.348Z,5.90
2017-09-03T11:41:41.944Z,6.40
2017-09-03T11:44:09.458Z,8.73
2017-09-03T11:46:37.131Z,6.33
2017-09-03T11:49:04.598Z,4.60
2017-09-03T11:51:32.157Z,9.03
2017-09-03T11:53:59.612Z,6.00
2017-09-03T11:56:27.091Z,6.10
2017-09-03T11:58:54.543Z,5.17
2017-09-03T12:01:22.019Z,4.50
2017-09-03T12:03:49.507Z,5.23
2017-09-03T12:06:16.989Z,6.73
2017-09-03T12:08:44.524Z,6.10
2017-09-03T12:11:12.036Z,7.27
2017-09-03T12:13:39.568Z,6.60
2017-09-03T12:16:07.101Z,5.77
2017-09-03T12:18:34.664Z,6.30
2017-09-03T12:21:02.140Z,5.53
2017-09-03T12:23:29.584Z,6.80
2017-09-03T12:25:57.238Z,6.37
2017-09-03T12:28:24.697Z,9.13
2017-09-03T12:30:52.155Z,5.37
2017-09-03T12:33:19.715Z,8.67
2017-09-03T12:35:47.173Z,7.00
2017-09-03T12:38:14.720Z,14.63
2017-09-03T12:40:42.196Z,11.43
2017-09-03T12:43:09.676Z,11.23
2017-09-03T12:45:37.192Z,9.63
2017-09-03T12:48:04.666Z,10.47
2017-09-03T12:50:32.159Z,10.60
2017-09-03T12:52:59.873Z,10.00
2017-09-03T12:55:27.327Z,11.47
2017-09-03T12:57:54.884Z,10.90
2017-09-03T13:00:22.444Z,9.27
2017-09-03T13:02:49.911Z,8.37
2017-09-03T13:05:17.684Z,10.20
2017-09-03T13:07:45.162Z,9.30
2017-09-03T13:10:12.611Z,9.80
2017-09-03T13:12:40.087Z,8.83
2017-09-03T13:15:07.619Z,11.43
2017-09-03T13:17:35.157Z,11.33
2017-09-03T13:20:02.724Z,12.30
2017-09-03T13:22:30.268Z,14.30
2017-09-03T13:24:57.741Z,17.20
2017-09-03T13:27:25.284Z,14.97
2017-09-03T13:29:52.740Z,11.90
2017-09-03T13:32:20.248Z,11.67
2017-09-03T13:34:47.708Z,14.20
2017-09-03T13:37:15.197Z,16.80
2017-09-03T13:39:42.670Z,13.50
2017-09-03T13:42:10.232Z,13.03
2017-09-03T13:44:37.809Z,10.90
2017-09-03T13:47:05.344Z,10.20
2017-09-03T13:49:32.812Z,8.07
2017-09-03T13:52:00.267Z,11.37
2017-09-03T13:54:27.743Z,10.13
2017-09-03T13:56:55.200Z,8.33
2017-09-03T13:59:22.733Z,7.20
2017-09-03T14:01:50.188Z,7.53
2017-09-03T14:04:17.672Z,8.00
2017-09-03T14:06:45.131Z,12.67
2017-09-03T14:09:13.542Z,8.83
2017-09-03T14:11:41.294Z,15.10
2017-09-03T14:14:09.830Z,7.57
2017-09-03T14:16:38.816Z,10.10
2017-09-03T14:19:07.544Z,7.93
2017-09-03T14:21:36.315Z,8.40
2017-09-03T14:24:04.881Z,9.17
2017-09-03T14:26:33.884Z,6.30
2017-09-03T14:29:02.666Z,7.00
2017-09-03T14:31:30.203Z,7.57
2017-09-03T14:33:57.705Z,6.23
2017-09-03T14:36:25.229Z,6.33
2017-09-03T14:38:52.700Z,5.93
2017-09-03T14:41:20.202Z,4.90
2017-09-03T14:43:47.714Z,3.43
2017-09-03T14:46:15.165Z,4.30
2017-09-03T14:48:42.662Z,4.97
2017-09-03T14:51:10.173Z,7.20
2017-09-03T14:53:37.727Z,3.27
2017-09-03T14:56:05.211Z,4.20
2017-09-03T14:58:32.662Z,4.23
2017-09-03T15:01:00.138Z,3.33
2017-09-03T15:03:27.621Z,3.50
2017-09-03T15:05:55.164Z,4.30
2017-09-03T15:08:22.634Z,3.73
2017-09-03T15:10:50.335Z,3.40
2017-09-03T15:13:17.780Z,3.57
2017-09-03T15:15:45.348Z,3.03
2017-09-03T15:18:12.907Z,3.17
2017-09-03T15:20:40.416Z,3.60
2017-09-03T15:23:07.871Z,3.20
2017-09-03T15:25:35.385Z,2.70
2017-09-03T15:28:02.836Z,5.07
2017-09-03T15:30:30.309Z,4.63
2017-09-03T15:32:57.766Z,3.77
2017-09-03T15:35:25.264Z,3.40
2017-09-03T15:37:52.729Z,3.47
2017-09-03T15:40:20.227Z,3.27
2017-09-03T15:42:47.683Z,3.27
2017-09-03T15:45:15.146Z,3.43
2017-09-03T15:47:42.628Z,2.60
2017-09-03T15:50:10.108Z,3.70
2017-09-03T15:52:37.559Z,3.00
2017-09-03T15:55:05.029Z,3.47
2017-09-03T15:57:32.519Z,9.43
2017-09-03T16:00:00.279Z,5.40
2017-09-03T16:02:27.853Z,3.80
2017-09-03T16:04:55.394Z,5.70
2017-09-03T16:07:22.835Z,2.73
2017-09-03T16:09:50.433Z,4.10
2017-09-03T16:12:18.274Z,2.70
2017-09-03T16:14:45.799Z,4.53
2017-09-03T16:17:13.307Z,2.77
2017-09-03T16:19:40.756Z,2.87
2017-09-03T16:22:08.222Z,3.30
2017-09-03T16:24:35.728Z,2.63
2017-09-03T16:27:03.225Z,3.90
2017-09-03T16:29:30.783Z,4.93
2017-09-03T16:31:58.289Z,4.20
2017-09-03T16:34:25.745Z,3.10
2017-09-03T16:36:53.254Z,3.00
2017-09-03T16:39:21.638Z,3.40
2017-09-03T16:41:49.111Z,3.13
2017-09-03T16:44:16.607Z,3.53
2017-09-03T16:46:44.086Z,4.20
2017-09-03T16:49:11.538Z,6.97
2017-09-03T16:51:39.027Z,2.70
2017-09-03T16:54:06.512Z,8.50
2017-09-03T16:56:34.007Z,2.77
2017-09-03T16:59:01.475Z,2.43
2017-09-03T17:01:28.964Z,2.50
2017-09-03T17:03:56.420Z,3.40
2017-09-03T17:06:23.897Z,6.30
2017-09-03T17:08:51.347Z,4.30
2017-09-03T17:11:18.808Z,3.40
2017-09-03T17:13:46.277Z,2.73
2017-09-03T17:16:13.761Z,3.33
2017-09-03T17:18:41.207Z,3.17
2017-09-03T17:21:08.668Z,4.70
2017-09-03T17:23:36.111Z,3.00
2017-09-03T17:26:03.587Z,3.90
2017-09-03T17:28:31.048Z,4.23
2017-09-03T17:30:59.406Z,4.40
2017-09-03T17:33:26.886Z,3.73
2017-09-03T17:36:05.099Z,3.17
2017-09-03T17:38:43.391Z,6.27
2017-09-03T17:41:10.930Z,8.90
2017-09-03T17:43:38.385Z,5.93
2017-09-03T17:46:06.588Z,6.53
2017-09-03T17:48:34.067Z,4.47
2017-09-03T17:51:01.528Z,4.70
2017-09-03T17:53:28.999Z,7.73
2017-09-03T17:55:56.448Z,8.63
2017-09-03T17:58:23.921Z,5.20
2017-09-03T18:00:51.445Z,4.10
2017-09-03T18:03:18.915Z,6.40
2017-09-03T18:05:46.381Z,11.40
2017-09-03T18:08:13.854Z,29.57
2017-09-03T18:10:41.341Z,40.43
2017-09-03T18:13:08.817Z,96.00
2017-09-03T18:15:36.276Z,46.17
2017-09-03T18:18:03.762Z,86.60
2017-09-03T18:20:31.259Z,86.00
2017-09-03T18:22:58.747Z,22.23
2017-09-03T18:25:26.203Z,17.63
2017-09-03T18:27:53.679Z,4.80
2017-09-03T18:30:21.135Z,10.50
2017-09-03T18:32:48.613Z,12.57
2017-09-03T18:35:18.491Z,26.60
2017-09-03T18:40:53.979Z,5.00
2017-09-03T18:43:21.443Z,4.50
2017-09-03T18:45:52.636Z,4.43
2017-09-03T18:48:20.164Z,3.97
2017-09-03T18:51:04.027Z,5.07
2017-09-03T18:53:31.535Z,4.37
2017-09-03T18:56:01.388Z,4.37
2017-09-03T18:58:29.355Z,3.87
2017-09-03T19:00:58.544Z,8.53
2017-09-03T19:03:27.249Z,4.10
2017-09-03T19:06:04.634Z,5.20
2017-09-03T19:08:32.129Z,5.33
2017-09-03T19:10:59.593Z,5.70
2017-09-03T19:13:27.075Z,11.13
2017-09-03T19:15:54.531Z,8.13
2017-09-03T19:18:22.044Z,4.80
2017-09-03T19:20:49.520Z,4.70
2017-09-03T19:23:16.980Z,4.83
2017-09-03T19:25:44.855Z,4.93
2017-09-03T19:28:12.324Z,9.30
2017-09-03T19:30:39.781Z,5.67
2017-09-03T19:33:07.770Z,6.43
2017-09-03T19:35:35.224Z,4.90
2017-09-03T19:38:02.699Z,5.80
2017-09-03T19:40:30.157Z,7.00
2017-09-03T19:42:57.637Z,5.07
2017-09-03T19:45:25.111Z,13.83
2017-09-03T19:47:52.598Z,7.90
2017-09-03T19:50:20.124Z,14.43
2017-09-03T19:52:47.676Z,6.70
2017-09-03T19:55:15.206Z,10.10
2017-09-03T19:57:42.676Z,6.53
2017-09-03T20:00:10.138Z,7.90
2017-09-03T20:02:37.579Z,7.50
2017-09-03T20:05:05.090Z,7.60
2017-09-03T20:07:32.912Z,7.67
2017-09-03T20:10:00.382Z,7.83
2017-09-03T20:12:27.870Z,9.40
2017-09-03T20:14:55.359Z,8.43
2017-09-03T20:17:22.810Z,10.03
2017-09-03T20:19:50.285Z,7.73
2017-09-03T20:22:17.734Z,7.87
2017-09-03T20:24:45.199Z,8.23
2017-09-03T20:27:12.652Z,8.53
2017-09-03T20:29:40.137Z,6.57
2017-09-03T20:32:07.601Z,7.33
2017-09-03T20:34:35.153Z,8.90
2017-09-03T20:37:02.603Z,11.30
2017-09-03T20:39:30.070Z,8.83
2017-09-03T20:41:57.539Z,7.77
2017-09-03T20:44:25.016Z,7.10
2017-09-03T20:46:52.541Z,9.93
2017-09-03T20:49:20.099Z,7.37
2017-09-03T20:51:47.548Z,9.67
2017-09-03T20:54:15.022Z,11.83
2017-09-03T20:56:42.469Z,7.97
2017-09-03T20:59:10.034Z,8.67
2017-09-03T21:01:37.484Z,7.50
2017-09-03T21:04:04.966Z,7.47
2017-09-03T21:06:32.426Z,7.97
2017-09-03T21:08:59.945Z,8.47
2017-09-03T21:11:27.425Z,9.13
2017-09-03T21:13:54.972Z,13.07
2017-09-03T21:16:22.447Z,8.13
2017-09-03T21:18:49.902Z,8.83
2017-09-03T21:21:17.439Z,12.03
2017-09-03T21:23:44.899Z,8.83
2017-09-03T21:26:12.372Z,11.77
2017-09-03T21:28:39.849Z,8.93
2017-09-03T21:31:07.377Z,7.80
2017-09-03T21:33:34.938Z,8.00
2017-09-03T21:36:02.439Z,9.80
2017-09-03T21:38:29.883Z,9.27
2017-09-03T21:40:57.630Z,10.17
2017-09-03T21:43:25.129Z,9.93
2017-09-03T21:45:52.724Z,11.10
2017-09-03T21:48:20.294Z,10.90
2017-09-03T21:50:47.842Z,10.83
2017-09-03T21:53:15.410Z,9.30
2017-09-03T21:55:42.959Z,10.53
2017-09-03T21:58:10.518Z,9.93
2017-09-03T22:00:38.010Z,11.27
2017-09-03T22:03:05.480Z,10.13
2017-09-03T22:05:32.996Z,9.70
2017-09-03T22:08:00.443Z,9.53
2017-09-03T22:10:27.924Z,8.97
2017-09-03T22:12:55.461Z,8.27
2017-09-03T22:15:22.927Z,8.70
2017-09-03T22:17:50.447Z,9.83
2017-09-03T22:20:17.936Z,8.50
2017-09-03T22:22:45.488Z,7.90
2017-09-03T22:25:12.969Z,13.63
2017-09-03T22:27:40.512Z,8.60
2017-09-03T22:30:07.985Z,7.60
2017-09-03T22:32:35.515Z,9.40
2017-09-03T22:35:02.980Z,9.20
2017-09-03T22:37:30.439Z,9.23
2017-09-03T22:39:58.030Z,9.10
2017-09-03T22:42:25.563Z,9.90
2017-09-03T22:44:53.019Z,8.47
2017-09-03T22:47:20.592Z,8.83
2017-09-03T22:49:48.123Z,8.40
2017-09-03T22:52:15.702Z,8.83
2017-09-03T22:54:43.245Z,8.77
2017-09-03T22:57:10.721Z,8.03
2017-09-03T22:59:38.262Z,8.30
2017-09-03T23:02:05.727Z,8.23
2017-09-03T23:04:33.280Z,7.97
2017-09-03T23:07:00.744Z,6.80
2017-09-03T23:09:28.283Z,6.80
2017-09-03T23:11:55.959Z,7.10
2017-09-03T23:14:23.421Z,6.97
2017-09-03T23:16:50.911Z,6.53
2017-09-03T23:19:18.383Z,6.87
2017-09-03T23:21:45.866Z,7.57
2017-09-03T23:24:13.486Z,7.13
2017-09-03T23:26:41.127Z,6.63
2017-09-03T23:29:08.576Z,7.37
2017-09-03T23:31:36.116Z,8.70
2017-09-03T23:34:03.687Z,7.83
2017-09-03T23:36:31.233Z,7.20
2017-09-03T23:38:58.693Z,7.23
2017-09-03T23:41:26.159Z,7.03
2017-09-03T23:43:53.623Z,7.27
2017-09-03T23:46:21.097Z,7.37
2017-09-03T23:48:48.542Z,6.87
2017-09-03T23:51:16.028Z,7.43
2017-09-03T23:53:43.476Z,6.77
2017-09-03T23:56:10.958Z,7.63
2017-09-03T23:58:38.430Z,7.43
